• Join FlightAware (Why Join?)
  • Login
  • US Flag 
12:23AM EDT


 

Airport Tracker/Info


-or-


 

Live Flight TrackerFlight Track Log ✈ SWA484 ✈ 05-Oct-2013 ✈ KLAS - KCMH

Flight Track Log - Related Links

Times and Time Zones

All times are in EDT time to prevent confusion due to time zone crossing. See the SWA484 flight status page for this flight to view local times or setup timezone preferences in your user account.

Time Position Orientation Groundspeed Altitude Reporting Facility
EDT Latitude Longitude Course Direction KTS MPH feet Rate Location/Type
12:25PM 36.0764 -115.1203 91° East 173 199 2,900  Level Los Angeles Center
12:26PM 36.0753 -115.0356 91° East 220 253 5,100 1,860 Climbing Los Angeles Center
12:27PM 36.0750 -114.9767 90° East 230 265 6,600 2,520 Climbing Los Angeles Center
12:27PM 36.0769 -114.9444 86° East 268 308 7,700 3,660 Climbing Los Angeles Center
12:28PM 36.0856 -114.8850 80° East 265 305 10,400 4,020 Climbing Los Angeles Center
12:28PM 36.0928 -114.8486 76° East 271 312 11,800 3,060 Climbing Los Angeles Center
12:29PM 36.1022 -114.7900 79° East 280 322 13,600 3,120 Climbing Los Angeles Center
12:29PM 36.1097 -114.7497 77° East 291 335 15,000 3,660 Climbing Los Angeles Center
12:30PM 36.1222 -114.6700 79° East 297 342 17,400 2,160 Climbing Los Angeles Center
12:31PM 36.1392 -114.5656 79° East 307 353 19,000 1,560 Climbing Los Angeles Center
12:32PM 36.1594 -114.4392 79° East 369 425 20,700 2,100 Climbing Los Angeles Center
12:33PM 36.1822 -114.3058 78° East 393 452 23,400 2,520 Climbing Los Angeles Center
12:34PM 36.2017 -114.1711 80° East 398 458 26,000 2,340 Climbing Los Angeles Center
12:35PM 36.2169 -114.0367 82° East 396 456 28,300 1,680 Climbing Los Angeles Center
12:36PM 36.2342 -113.8939 81° East 415 478 29,500 1,320 Climbing Los Angeles Center
12:37PM 36.2558 -113.7144 81° East 437 503 31,100 1,500 Climbing Los Angeles Center
12:38PM 36.2728 -113.5622 82° East 445 512 32,600 1,440 Climbing Los Angeles Center
12:39PM 36.2906 -113.4075 82° East 454 522 34,100 1,140 Climbing Los Angeles Center
12:40PM 36.3086 -113.2542 82° East 451 519 35,000 420 Climbing Los Angeles Center
12:41PM 36.3553 -113.1081 68° East 439 505 35,000  Level Los Angeles Center
12:42PM 36.4067 -112.9700 65° Northeast 441 507 35,000  Level Los Angeles Center
12:43PM 36.4575 -112.8308 66° East 443 510 35,000  Level Los Angeles Center
12:44PM 36.5186 -112.6653 65° Northeast 443 510 35,000  Level Los Angeles Center
12:45PM 36.5692 -112.5283 65° Northeast 439 505 35,000  Level Los Angeles Center
12:46PM 36.6200 -112.3917 65° Northeast 437 503 35,000  Level Los Angeles Center
12:47PM 36.6681 -112.2544 66° East 436 502 35,000  Level Los Angeles Center
12:48PM 36.7186 -112.1186 65° Northeast 435 501 35,000  Level Los Angeles Center
12:49PM 36.7772 -111.9558 66° East 433 498 35,000  Level Los Angeles Center
12:50PM 36.8267 -111.8181 66° East 434 499 35,000  Level Los Angeles Center
12:52PM 36.8744 -111.6811 66° East 433 498 35,000  Level Los Angeles Center
12:52PM 36.9044 -111.5983 66° East 436 502 35,000  Level Denver Center
12:53PM 36.9528 -111.4608 66° East 435 501 35,000  Level Denver Center
12:54PM 37.0117 -111.2939 66° East 438 504 35,000  Level Denver Center
12:55PM 37.0594 -111.1547 67° East 437 503 35,000  Level Denver Center
12:56PM 37.1100 -111.0136 66° East 445 512 35,000  Level Denver Center
12:57PM 37.1575 -110.8733 67° East 439 505 35,000  Level Denver Center
12:58PM 37.2067 -110.7325 66° East 442 509 35,000  Level Denver Center
12:59PM 37.2644 -110.5650 67° East 437 503 35,000  Level Denver Center
01:00PM 37.3114 -110.4258 67° East 435 501 35,000  Level Denver Center
01:01PM 37.3603 -110.2856 66° East 439 505 35,000  Level Denver Center
01:03PM 37.4092 -110.1378 67° East 433 498 35,000  Level Denver Center
01:04PM 37.4550 -110.0008 67° East 441 507 35,000  Level Denver Center
01:05PM 37.5086 -109.8444 67° East 437 503 35,000  Level Denver Center
01:06PM 37.5536 -109.7069 68° East 442 509 35,000  Level Denver Center
01:07PM 37.6064 -109.5472 67° East 441 507 35,000  Level Denver Center
01:08PM 37.6525 -109.4089 67° East 445 512 35,000  Level Denver Center
01:09PM 37.6978 -109.2725 67° East 440 506 35,000  Level Denver Center
01:10PM 37.7506 -109.1128 67° East 440 506 35,000  Level Denver Center
01:11PM 37.7939 -108.9756 68° East 439 505 35,000  Level Denver Center
01:12PM 37.8475 -108.8178 67° East 438 504 35,000  Level Denver Center
01:13PM 37.8800 -108.6794 73° East 438 504 35,000  Level Denver Center
01:14PM 37.9100 -108.5114 77° East 439 505 35,000  Level Denver Center
01:15PM 37.9361 -108.3661 77° East 441 507 35,000  Level Denver Center
01:16PM 37.9683 -108.1953 76° East 443 510 35,000  Level Denver Center
01:17PM 37.9953 -108.0481 77° East 446 513 35,000  Level Denver Center
01:18PM 38.0258 -107.8756 77° East 448 516 35,000  Level Denver Center
01:19PM 38.0519 -107.7272 77° East 449 517 35,000  Level Denver Center
01:20PM 38.0789 -107.5803 77° East 449 517 35,000 600 Level Denver Center
01:21PM 38.1083 -107.4081 78° East 449 517 36,300 960 Climbing Denver Center
01:22PM 38.1331 -107.2661 77° East 439 505 37,000 660 Climbing Denver Center
01:23PM 38.1617 -107.1039 77° East 448 516 37,700 720 Climbing Denver Center
01:24PM 38.1889 -106.9444 78° East 460 529 38,500 600 Climbing Denver Center
01:25PM 38.2192 -106.7597 78° East 465 535 39,000 240 Climbing Denver Center
01:26PM 38.2447 -106.6025 78° East 473 544 39,000  Level Denver Center
01:27PM 38.2764 -106.4225 77° East 475 547 39,000  Level Denver Center
01:28PM 38.3028 -106.2567 78° East 478 550 39,000  Level Denver Center
01:29PM 38.3300 -106.0967 78° East 481 554 39,000  Level Denver Center
01:30PM 38.3594 -105.9125 78° East 477 549 39,000  Level Denver Center
01:31PM 38.3881 -105.7367 78° East 477 549 39,000  Level Denver Center
01:32PM 38.4136 -105.5728 79° East 475 547 39,000  Level Denver Center
01:34PM 38.4392 -105.4086 79° East 474 545 39,000  Level Denver Center
01:35PM 38.4653 -105.2419 79° East 480 552 39,000  Level Denver Center
01:36PM 38.4914 -105.0767 79° East 479 551 39,000  Level Denver Center
01:37PM 38.5217 -104.8761 79° East 482 555 39,000  Level Denver Center
01:38PM 38.5478 -104.7075 79° East 486 559 39,000  Level Denver Center
01:39PM 38.5717 -104.5403 80° East 483 556 39,000  Level Denver Center
01:40PM 38.5972 -104.3739 79° East 482 555 39,000  Level Denver Center
01:41PM 38.6217 -104.2064 79° East 482 555 39,000  Level Denver Center
01:42PM 38.6483 -104.0167 80° East 477 549 39,000  Level Denver Center
01:43PM 38.6708 -103.8553 80° East 481 554 39,000  Level Denver Center
01:44PM 38.6981 -103.6675 79° East 481 554 39,000  Level Denver Center
01:45PM 38.7206 -103.5058 80° East 481 554 39,000  Level Denver Center
01:46PM 38.7450 -103.3386 79° East 480 552 39,000  Level Denver Center
01:47PM 38.7667 -103.1706 81° East 480 552 39,000  Level Denver Center
01:48PM 38.7956 -102.9664 80° East 487 560 39,000  Level Denver Center
01:49PM 38.8169 -102.7956 81° East 488 562 39,000  Level Denver Center
01:50PM 38.8411 -102.6172 80° East 492 566 39,000  Level Denver Center
01:51PM 38.8614 -102.4536 81° East 486 559 39,000  Level Denver Center
01:52PM 38.8867 -102.2633 80° East 484 557 39,000  Level Denver Center
01:53PM 38.9083 -102.1006 80° East 484 557 39,000  Level Denver Center
01:54PM 38.9275 -101.9353 81° East 488 562 39,000  Level Denver Center
01:55PM 38.9525 -101.7436 80° East 488 562 39,000  Level Denver Center
01:56PM 38.9719 -101.5808 81° East 482 555 39,000  Level Denver Center
01:57PM 38.9956 -101.3883 81° East 487 560 39,000  Level Denver Center
01:58PM 39.0153 -101.2244 81° East 485 558 39,000  Level Denver Center
01:59PM 39.0392 -101.0317 81° East 486 559 39,000  Level Denver Center
02:00PM 39.0583 -100.8653 82° East 490 564 39,000  Level Denver Center
02:01PM 39.0803 -100.6708 82° East 492 566 39,000  Level Denver Center
02:02PM 39.0994 -100.5039 82° East 494 568 39,000  Level Denver Center
02:03PM 39.1217 -100.3056 82° East 500 575 39,000  Level Denver Center
02:04PM 39.1406 -100.1317 82° East 507 583 39,000  Level Denver Center
02:05PM 39.1592 -99.9558 82° East 510 587 39,000  Level Denver Center
02:07PM 39.1814 -99.7550 82° East 508 585 39,000  Level Denver Center
02:08PM 39.1997 -99.5794 82° East 514 592 39,000  Level Denver Center
02:09PM 39.2197 -99.3819 82° East 512 589 39,000  Level Denver Center
02:10PM 39.2367 -99.2083 83° East 511 588 39,000  Level Denver Center
02:11PM 39.2569 -99.0094 82° East 505 581 39,000  Level Denver Center
02:12PM 39.2753 -98.8281 83° East 498 573 39,000  Level Denver Center
02:13PM 39.2919 -98.6508 83° East 498 573 39,000  Level Denver Center
02:14PM 39.3092 -98.4736 83° East 498 573 39,000  Level Denver Center
02:15PM 39.3250 -98.2972 83° East 496 571 39,000  Level Denver Center
02:16PM 39.3486 -98.0483 83° East 495 570 39,000  Level Kansas City Center
02:17PM 39.3667 -97.8464 83° East 505 581 39,000  Level Kansas City Center
02:18PM 39.3814 -97.6869 83° East 509 586 39,000  Level Kansas City Center
02:19PM 39.3967 -97.4997 84° East 507 583 39,000  Level Kansas City Center
02:20PM 39.4133 -97.2981 84° East 506 582 39,000  Level Kansas City Center
02:21PM 39.4283 -97.1239 84° East 508 585 39,000  Level Kansas City Center
02:22PM 39.4464 -96.9228 83° East 505 581 39,000  Level Kansas City Center
02:23PM 39.4597 -96.7517 84° East 501 577 39,000  Level Kansas City Center
02:24PM 39.4736 -96.5794 84° East 502 578 39,000  Level Kansas City Center
02:25PM 39.4881 -96.3886 84° East 507 583 39,000  Level Kansas City Center
02:26PM 39.5014 -96.2086 84° East 504 580 39,000  Level Kansas City Center
02:27PM 39.5153 -96.0039 85° East 499 574 39,000  Level Kansas City Center
02:29PM 39.5286 -95.8336 84° East 496 571 39,000  Level Kansas City Center
02:30PM 39.5397 -95.6622 85° East 496 571 39,000  Level Kansas City Center
02:31PM 39.5542 -95.4611 85° East 498 573 39,000  Level Kansas City Center
02:32PM 39.5653 -95.2897 85° East 496 571 39,000  Level Kansas City Center
02:33PM 39.5789 -95.0897 85° East 494 568 39,000  Level Kansas City Center
02:34PM 39.5889 -94.9208 86° East 489 563 39,000  Level Kansas City Center
02:35PM 39.5992 -94.7525 85° East 488 562 39,000  Level Kansas City Center
02:36PM 39.6117 -94.5572 85° East 486 559 39,000  Level Kansas City Center
02:37PM 39.6217 -94.3914 85° East 482 555 39,000  Level Kansas City Center
02:38PM 39.6322 -94.2008 86° East 475 547 39,000  Level Kansas City Center
02:39PM 39.6422 -94.0358 85° East 478 550 39,000  Level Kansas City Center
02:40PM 39.6514 -93.8708 86° East 479 551 39,000  Level Kansas City Center
02:41PM 39.6608 -93.6814 86° East 483 556 39,000  Level Kansas City Center
02:42PM 39.6706 -93.5108 86° East 480 552 39,000  Level Kansas City Center
02:43PM 39.6786 -93.3394 86° East 482 555 39,000  Level Kansas City Center
02:44PM 39.6869 -93.1692 86° East 479 551 39,000  Level Kansas City Center
02:45PM 39.6950 -92.9967 86° East 484 557 39,000  Level Kansas City Center
02:46PM 39.7036 -92.7892 87° East 486 559 39,000  Level Kansas City Center
02:47PM 39.7111 -92.6192 87° East 482 555 39,000  Level Kansas City Center
02:48PM 39.7192 -92.4478 86° East 482 555 39,000  Level Kansas City Center
02:49PM 39.7261 -92.2753 87° East 483 556 39,000  Level Kansas City Center
02:50PM 39.7317 -92.1056 88° East 481 554 39,000  Level Kansas City Center
02:51PM 39.7406 -91.9011 87° East 479 551 39,000  Level Kansas City Center
02:52PM 39.7464 -91.7319 87° East 478 550 39,000  Level Kansas City Center
02:53PM 39.7519 -91.5642 87° East 472 543 39,000  Level Kansas City Center
02:54PM 39.7581 -91.3958 87° East 472 543 39,000  Level Kansas City Center
02:55PM 39.7642 -91.2153 87° East 470 541 39,000  Level Kansas City Center
02:56PM 39.7681 -91.0614 88° East 467 537 39,000  Level Kansas City Center
02:57PM 39.7744 -90.8822 87° East 467 537 39,000  Level Kansas City Center
02:58PM 39.7789 -90.7125 88° East 469 540 39,000  Level Kansas City Center
02:59PM 39.7828 -90.5408 88° East 474 545 39,000  Level Kansas City Center
03:00PM 39.7881 -90.3356 88° East 475 547 39,000  Level Kansas City Center
03:01PM 39.7931 -90.1633 88° East 478 550 39,000  Level Kansas City Center
03:02PM 39.7958 -89.9894 89° East 481 554 39,000  Level Kansas City Center
03:03PM 39.7986 -89.8164 89° East 481 554 39,000  Level Kansas City Center
03:04PM 39.7997 -89.6425 89° East 482 555 39,000  Level Kansas City Center
03:05PM 39.7744 -89.4786 101° East 466 536 39,000  Level Kansas City Center
03:06PM 39.7475 -89.3144 102° East 466 536 39,000  Level Kansas City Center
03:07PM 39.7153 -89.1214 102° East 462 532 39,000  Level Kansas City Center
03:09PM 39.6900 -88.9603 101° East 458 527 39,000  Level Kansas City Center
03:10PM 39.6622 -88.8003 103° East 456 525 39,000  Level Kansas City Center
03:11PM 39.6525 -88.6347 94° East 463 533 39,000  Level Kansas City Center
03:12PM 39.6503 -88.4447 91° East 469 540 39,000  Level Kansas City Center
03:13PM 39.6636 -88.2961 83° East 468 539 39,000  Level Kansas City Center
03:14PM 39.6811 -88.1039 83° East 472 543 39,000  Level Kansas City Center
03:15PM 39.6958 -87.9331 84° East 473 544 39,000  Level Kansas City Center
03:15PM 39.7058 -87.7931 85° East 477 549 39,000  Level Indianapolis Center
03:16PM 39.7211 -87.6197 83° East 482 555 39,000  Level Indianapolis Center
03:17PM 39.7336 -87.4458 85° East 485 558 39,000  Level Indianapolis Center
03:18PM 39.7497 -87.2717 83° East 487 560 39,000  Level Indianapolis Center
03:19PM 39.7614 -87.0983 85° East 483 556 39,000  Level Indianapolis Center
03:20PM 39.7744 -86.9239 84° East 485 558 39,000 -120 Level Indianapolis Center
03:22PM 39.7881 -86.7492 84° East 487 560 38,800 -600 Descending Indianapolis Center
03:23PM 39.8000 -86.5767 85° East 480 552 37,800 -960 Descending Indianapolis Center
03:24PM 39.8131 -86.4011 84° East 482 555 36,900 -900 Descending Indianapolis Center
03:25PM 39.8456 -86.2236 77° East 487 560 36,000 -480 Descending Indianapolis Center
03:26PM 39.8825 -86.0544 74° East 484 557 36,000 -180 Level Indianapolis Center
03:27PM 39.9164 -85.8889 75° East 478 550 35,700 -1,320 Descending Indianapolis Center
03:28PM 39.9581 -85.6892 75° East 477 549 33,300 -2,220 Descending Indianapolis Center
03:29PM 39.9917 -85.5264 75° East 472 543 31,200 -2,040 Descending Indianapolis Center
03:30PM 40.0253 -85.3669 75° East 461 531 29,200 -1,080 Descending Indianapolis Center
03:31PM 40.0581 -85.2042 75° East 462 532 29,000 -300 Descending Indianapolis Center
03:32PM 40.0928 -85.0319 75° East 484 557 28,600 -720 Descending Indianapolis Center
03:33PM 40.1253 -84.8633 76° East 484 557 27,600 -1,020 Descending Indianapolis Center
03:34PM 40.1589 -84.6967 75° East 478 550 26,600 -1,080 Descending Indianapolis Center
03:35PM 40.1928 -84.5322 75° East 471 542 25,500 -1,140 Descending Indianapolis Center
03:36PM 40.2300 -84.3397 76° East 457 526 24,300 -1,020 Descending Indianapolis Center
03:37PM 40.2603 -84.1842 76° East 445 512 23,500 -1,500 Descending Indianapolis Center
03:38PM 40.2872 -84.0283 77° East 438 504 21,300 -2,520 Descending Indianapolis Center
03:39PM 40.3206 -83.8739 74° East 438 504 18,400 -2,940 Descending Indianapolis Center
03:39PM 40.3267 -83.8408 76° East 441 507 17,800 -2,640 Descending Indianapolis Center
03:40PM 40.3511 -83.7194 75° East 436 502 15,700 -2,520 Descending Indianapolis Center
03:40PM 40.3614 -83.6656 76° East 431 496 15,000 -2,100 Descending Indianapolis Center
03:41PM 40.3797 -83.5719 76° East 419 482 13,600 -2,100 Descending Indianapolis Center
03:41PM 40.3900 -83.5247 74° East 399 459 12,900 -2,100 Descending Indianapolis Center
03:42PM 40.4078 -83.4350 75° East 393 452 11,500 -1,800 Descending Indianapolis Center
03:43PM 40.4008 -83.3533 96° East 359 413 10,600 -1,080 Descending Indianapolis Center
03:43PM 40.3794 -83.3156 127° Southeast 359 413 10,400 -600 Descending Indianapolis Center
03:44PM 40.3447 -83.2589 129° Southeast 301 346 10,000 -720 Descending Indianapolis Center
03:44PM 40.3250 -83.2272 129° Southeast 316 364 9,700 -1,320 Descending Indianapolis Center
03:45PM 40.2900 -83.1728 130° Southeast 299 344 8,700 -1,500 Descending Indianapolis Center
03:45PM 40.2719 -83.1419 127° Southeast 305 351 8,200 -1,500 Descending Indianapolis Center
03:46PM 40.2333 -83.0842 131° Southeast 295 339 7,200 -1,680 Descending Indianapolis Center
03:46PM 40.2100 -83.0444 128° Southeast 294 338 6,500 -1,020 Descending Indianapolis Center
03:47PM 40.1822 -83.0044 132° Southeast 285 328 6,200 -540 Descending Indianapolis Center
03:47PM 40.1611 -82.9661 126° Southeast 285 328 6,000 -300 Descending Indianapolis Center
03:47PM 40.1533 -82.9533 129° Southeast 256 295 6,000  Level Indianapolis Center
03:48PM 40.1192 -82.8997 130° Southeast 254 292 6,000  Level Indianapolis Center
03:48PM 40.1150 -82.8925 127° Southeast 232 267 6,000 -780 Level Indianapolis Center
03:49PM 40.1003 -82.8158 104° East 247 284 5,200 -780 Descending Indianapolis Center
03:50PM 40.0944 -82.7769 101° East 250 288 5,000 -840 Descending Indianapolis Center
03:50PM 40.0878 -82.7272 100° East 248 285 4,400 -1,140 Descending Indianapolis Center
03:51PM 40.0817 -82.6875 101° East 248 285 3,900 -900 Descending Indianapolis Center
03:51PM 40.0417 -82.6675 159° South 221 254 3,400 -540 Descending Indianapolis Center
03:52PM 39.9950 -82.6739 186° South 228 262 3,000 -360 Descending Indianapolis Center
03:53PM 39.9858 -82.7025 247° West 189 217 3,000 -240 Level Indianapolis Center
03:53PM 39.9817 -82.7350 261° West 193 222 2,800 -480 Descending Indianapolis Center
03:53PM 39.9847 -82.7597 279° West 168 193 2,600 -780 Descending Indianapolis Center
03:54PM 39.9872 -82.7953 275° West 175 201 2,000 -780 Descending Indianapolis Center
03:56PM 39.9833 -82.8833 153° Southeast  Level FlightAware Approximate